Time;durP1;ratioP1;P1;durP2;ratioP2;P2;SDS_P1;SDS_P2;PMS_P1;PMS_P2;Temp;Humidity;BMP_temperature;BMP_pressure;BME280_temperature;BME280_humidity;BME280_pressure;Samples;Min_cycle;Max_cycle;Signal;HPM_P1;HPM_P2
2022/10/24 00:01:13;;;;;;;5.78;2.22;;;16.40;99.90;;;;;;5016709;28;93112;-78
2022/10/24 00:03:40;;;;;;;5.00;2.05;;;16.50;99.90;;;;;;5016365;28;92512;-78
2022/10/24 00:06:09;;;;;;;3.88;1.88;;;16.40;99.90;;;;;;5016104;28;92546;-78
2022/10/24 00:08:37;;;;;;;3.85;2.15;;;16.40;99.90;;;;;;5013035;28;97861;-78
2022/10/24 00:11:15;;;;;;;2.97;2.10;;;16.40;99.90;;;;;;5016011;28;95788;-78
2022/10/24 00:13:43;;;;;;;3.83;2.20;;;16.40;99.90;;;;;;5014393;28;92546;-78
2022/10/24 00:16:11;;;;;;;5.30;2.42;;;16.40;99.90;;;;;;5016224;28;92483;-78
2022/10/24 00:18:38;;;;;;;3.97;2.00;;;16.40;99.90;;;;;;5015563;28;94548;-78
2022/10/24 00:21:06;;;;;;;4.70;2.10;;;16.30;99.90;;;;;;5015171;28;103009;-78
2022/10/24 00:23:33;;;;;;;4.10;1.90;;;16.30;99.90;;;;;;5016033;28;92472;-78
2022/10/24 00:26:02;;;;;;;3.50;2.00;;;16.30;99.90;;;;;;5015265;28;91706;-78
2022/10/24 00:28:31;;;;;;;3.05;2.22;;;16.20;99.90;;;;;;5013932;28;95905;-78
2022/10/24 00:30:59;;;;;;;7.25;2.35;;;16.20;99.90;;;;;;4997909;28;95699;-78
2022/10/24 00:33:26;;;;;;;5.07;2.08;;;16.20;99.90;;;;;;5014847;28;94821;-78
2022/10/24 00:35:53;;;;;;;7.20;2.28;;;16.20;99.90;;;;;;5015075;28;92502;-78
2022/10/24 00:38:20;;;;;;;4.70;2.17;;;16.10;99.90;;;;;;5016078;28;93403;-78
2022/10/24 00:40:47;;;;;;;4.43;2.10;;;16.10;99.90;;;;;;5015475;28;93025;-78
2022/10/24 00:43:18;;;;;;;3.40;2.10;;;16.00;99.90;;;;;;4998620;28;92489;-78
2022/10/24 00:45:45;;;;;;;4.80;2.10;;;16.00;99.90;;;;;;5016113;28;92386;-78
2022/10/24 00:48:32;;;;;;;2.28;2.08;;;16.00;99.90;;;;;;5015667;28;95503;-78
2022/10/24 00:51:14;;;;;;;4.75;2.33;;;16.00;99.90;;;;;;5015015;28;92721;-78
2022/10/24 00:53:45;;;;;;;3.10;1.63;;;16.10;99.90;;;;;;5015919;28;92394;-78
2022/10/24 00:56:15;;;;;;;2.95;1.60;;;16.00;99.90;;;;;;5030959;28;92815;-78
2022/10/24 00:58:43;;;;;;;5.50;1.90;;;16.00;99.90;;;;;;5014102;28;95636;-78
2022/10/24 01:01:11;;;;;;;3.28;1.80;;;16.10;99.90;;;;;;5013787;28;108556;-78
2022/10/24 01:03:39;;;;;;;3.72;1.70;;;16.10;99.90;;;;;;5015587;28;92470;-78
2022/10/24 01:06:06;;;;;;;4.57;2.10;;;16.10;99.90;;;;;;5015948;28;92410;-78
2022/10/24 01:08:33;;;;;;;5.18;2.17;;;16.10;99.90;;;;;;5013859;28;93047;-78
2022/10/24 01:11:25;;;;;;;2.10;1.58;;;16.10;99.90;;;;;;5015532;28;92966;-78
2022/10/24 01:14:19;;;;;;;5.55;2.08;;;16.10;99.90;;;;;;5030915;28;92503;-78
2022/10/24 01:17:24;;;;;;;2.95;1.75;;;16.20;99.90;;;;;;5015987;28;91721;-78
2022/10/24 01:20:09;;;;;;;4.10;1.88;;;16.10;99.90;;;;;;4983177;28;96053;-78
2022/10/24 01:22:54;;;;;;;3.60;1.77;;;16.20;99.90;;;;;;5013745;28;95978;-78
2022/10/24 01:25:27;;;;;;;6.00;2.20;;;16.20;99.90;;;;;;5012696;28;94900;-78
2022/10/24 01:28:10;;;;;;;4.97;1.70;;;16.20;99.90;;;;;;5014766;28;92672;-78
2022/10/24 01:31:07;;;;;;;5.28;1.90;;;16.30;99.90;;;;;;5013977;28;93245;-78
2022/10/24 01:33:39;;;;;;;4.80;2.40;;;16.30;99.90;;;;;;5009951;28;95427;-78
2022/10/24 01:36:12;;;;;;;2.58;2.05;;;16.30;99.90;;;;;;5019122;28;92693;-78
2022/10/24 01:38:56;;;;;;;3.90;2.13;;;16.40;99.90;;;;;;5017496;28;92504;-78
2022/10/24 01:41:27;;;;;;;5.32;2.47;;;16.40;99.90;;;;;;5018735;28;93373;-78
2022/10/24 01:44:05;;;;;;;5.18;2.15;;;16.40;99.90;;;;;;5019022;28;92988;-78
2022/10/24 01:46:38;;;;;;;6.07;2.50;;;16.40;99.90;;;;;;5018643;28;92440;-78
2022/10/24 01:49:18;;;;;;;4.57;2.28;;;16.40;99.90;;;;;;5018485;28;92489;-78
2022/10/24 01:51:49;;;;;;;3.15;2.03;;;16.50;99.90;;;;;;5016827;28;96506;-78
2022/10/24 01:54:16;;;;;;;6.05;2.60;;;16.50;99.90;;;;;;5018078;28;95300;-78
2022/10/24 01:56:44;;;;;;;4.38;2.67;;;16.50;99.90;;;;;;5017023;28;92550;-78
2022/10/24 01:59:29;;;;;;;7.60;2.70;;;16.50;99.90;;;;;;5017274;28;92510;-78
2022/10/24 02:02:11;;;;;;;6.18;2.67;;;16.60;99.90;;;;;;5016883;28;93533;-78
2022/10/24 02:04:47;;;;;;;7.75;2.40;;;16.60;99.90;;;;;;5018147;28;93811;-78
2022/10/24 02:07:17;;;;;;;4.32;2.97;;;16.50;99.90;;;;;;5018233;28;92438;-78
2022/10/24 02:09:47;;;;;;;5.45;2.90;;;16.40;99.90;;;;;;5018099;28;96683;-78
2022/10/24 02:12:16;;;;;;;6.13;3.08;;;16.40;99.90;;;;;;5017837;28;93512;-78
2022/10/24 02:14:49;;;;;;;4.22;2.70;;;16.40;99.90;;;;;;5016654;28;95510;-78
2022/10/24 02:17:17;;;;;;;6.45;2.67;;;16.40;99.90;;;;;;5016882;28;94820;-78
2022/10/24 02:19:45;;;;;;;9.32;2.70;;;16.30;99.90;;;;;;5016903;28;92411;-78
2022/10/24 02:22:36;;;;;;;5.15;2.90;;;16.40;99.90;;;;;;5017949;28;93298;-78
2022/10/24 02:25:33;;;;;;;6.57;3.40;;;16.50;99.90;;;;;;5017919;28;92835;-78
2022/10/24 02:28:11;;;;;;;4.68;2.50;;;16.40;99.90;;;;;;5014758;28;92541;-78
2022/10/24 02:30:55;;;;;;;6.93;2.72;;;16.40;99.90;;;;;;5016876;28;92867;-78
2022/10/24 02:33:22;;;;;;;7.32;3.22;;;16.50;99.90;;;;;;5016210;28;95901;-78
2022/10/24 02:35:51;;;;;;;6.85;2.42;;;16.50;99.90;;;;;;5018132;28;93178;-78
2022/10/24 02:38:23;;;;;;;4.35;3.63;;;16.50;99.90;;;;;;5016732;28;92450;-78
2022/10/24 02:40:52;;;;;;;7.68;3.17;;;16.50;99.90;;;;;;5017815;28;92329;-78
2022/10/24 02:43:21;;;;;;;4.97;2.90;;;16.50;99.90;;;;;;5016381;28;95554;-78
2022/10/24 02:45:51;;;;;;;7.80;2.92;;;16.50;99.90;;;;;;5016882;28;95107;-78
2022/10/24 02:48:21;;;;;;;5.13;2.65;;;16.50;99.90;;;;;;5016551;28;92501;-78
2022/10/24 02:50:49;;;;;;;5.80;2.92;;;16.50;99.90;;;;;;5016017;28;92464;-79
2022/10/24 02:53:20;;;;;;;7.38;3.10;;;16.40;99.90;;;;;;5015856;28;95820;-78
2022/10/24 02:55:47;;;;;;;6.15;3.03;;;16.40;99.90;;;;;;5016100;28;92636;-78
2022/10/24 02:58:14;;;;;;;5.93;3.35;;;16.30;99.90;;;;;;5017361;28;92461;-78
2022/10/24 03:00:41;;;;;;;6.72;3.15;;;16.20;99.90;;;;;;4999934;28;91753;-78
2022/10/24 03:03:08;;;;;;;7.22;3.10;;;16.20;99.90;;;;;;5015423;28;95859;-78
2022/10/24 03:05:35;;;;;;;4.18;2.55;;;16.10;99.90;;;;;;5017063;28;93019;-78
2022/10/24 03:08:02;;;;;;;6.65;2.72;;;16.10;99.90;;;;;;5014648;28;95017;-78
2022/10/24 03:10:29;;;;;;;4.38;2.65;;;16.10;99.90;;;;;;5015957;28;92484;-78
2022/10/24 03:12:56;;;;;;;5.45;2.78;;;16.10;99.90;;;;;;5015398;28;95614;-78
2022/10/24 03:15:23;;;;;;;5.80;3.35;;;16.10;99.90;;;;;;5016098;28;95453;-78
2022/10/24 03:17:50;;;;;;;4.55;2.90;;;16.00;99.90;;;;;;4998837;28;92461;-78
2022/10/24 03:20:17;;;;;;;4.80;2.35;;;16.10;99.90;;;;;;5015732;28;92532;-78
2022/10/24 03:22:44;;;;;;;5.07;2.65;;;16.00;99.90;;;;;;5016642;28;106643;-78
2022/10/24 03:25:11;;;;;;;4.57;2.75;;;16.10;99.90;;;;;;5032399;28;95440;-78
2022/10/24 03:27:37;;;;;;;5.85;2.65;;;16.10;99.90;;;;;;5016793;28;92453;-78
2022/10/24 03:30:05;;;;;;;7.03;2.97;;;16.10;99.90;;;;;;5015429;28;92429;-78
2022/10/24 03:32:33;;;;;;;6.65;2.78;;;16.10;99.90;;;;;;5015567;28;95728;-78
2022/10/24 03:35:00;;;;;;;5.43;3.00;;;16.00;99.90;;;;;;5014990;28;97879;-78
2022/10/24 03:37:28;;;;;;;6.88;3.55;;;16.00;99.90;;;;;;5015250;28;92440;-78
2022/10/24 03:39:55;;;;;;;6.20;2.78;;;16.00;99.90;;;;;;4999003;28;93177;-78
2022/10/24 03:42:21;;;;;;;5.82;2.75;;;16.00;99.90;;;;;;5016096;28;109085;-78
2022/10/24 03:44:48;;;;;;;9.05;2.92;;;16.00;99.90;;;;;;5015069;28;92822;-78
2022/10/24 03:47:15;;;;;;;4.93;3.15;;;16.00;99.90;;;;;;5015269;28;92497;-78
2022/10/24 03:49:42;;;;;;;5.05;3.40;;;16.10;99.90;;;;;;5015565;28;91728;-78
2022/10/24 03:52:09;;;;;;;6.25;2.95;;;16.10;99.90;;;;;;5014903;28;95712;-78
2022/10/24 03:54:37;;;;;;;6.15;3.33;;;16.10;99.90;;;;;;5015019;28;93108;-78
2022/10/24 03:57:04;;;;;;;6.97;2.42;;;16.20;99.90;;;;;;5012872;28;94911;-78
2022/10/24 03:59:31;;;;;;;8.40;3.28;;;16.20;99.90;;;;;;5015253;28;92501;-78
2022/10/24 04:02:00;;;;;;;4.57;2.67;;;16.20;99.90;;;;;;5016132;28;92414;-78
2022/10/24 04:04:27;;;;;;;5.80;2.90;;;16.20;99.90;;;;;;5016022;28;92429;-78
2022/10/24 04:06:54;;;;;;;5.93;2.55;;;16.30;99.90;;;;;;5015244;28;92508;-78
2022/10/24 04:09:21;;;;;;;6.82;2.75;;;16.30;99.90;;;;;;5014716;28;92433;-78
2022/10/24 04:11:48;;;;;;;6.03;2.85;;;16.30;99.90;;;;;;5016007;28;93244;-78
2022/10/24 04:14:15;;;;;;;5.38;2.60;;;16.40;99.90;;;;;;4998186;28;104022;-78
2022/10/24 04:16:42;;;;;;;3.35;2.42;;;16.30;99.90;;;;;;5031629;28;92544;-78
2022/10/24 04:19:09;;;;;;;6.97;2.88;;;16.30;99.90;;;;;;5016077;28;92527;-78
2022/10/24 04:21:36;;;;;;;5.30;2.35;;;16.20;99.90;;;;;;5014586;28;95704;-78
2022/10/24 04:24:04;;;;;;;5.03;2.53;;;16.30;99.90;;;;;;5014628;28;95564;-78
2022/10/24 04:26:31;;;;;;;5.70;2.42;;;16.30;99.90;;;;;;5015512;28;92808;-78
2022/10/24 04:28:58;;;;;;;6.32;2.47;;;16.30;99.90;;;;;;5014709;28;92448;-78
2022/10/24 04:31:25;;;;;;;8.90;2.80;;;16.30;99.90;;;;;;5014736;28;93171;-78
2022/10/24 04:33:51;;;;;;;5.53;2.25;;;16.20;99.90;;;;;;5014275;28;103041;-78
2022/10/24 04:36:19;;;;;;;6.30;2.45;;;16.20;99.90;;;;;;5014734;28;92389;-78
2022/10/24 04:38:46;;;;;;;3.53;2.13;;;16.20;99.90;;;;;;5031726;28;91855;-78
2022/10/24 04:41:13;;;;;;;4.63;2.10;;;16.10;99.90;;;;;;5014395;28;93344;-78
2022/10/24 04:43:40;;;;;;;3.65;1.92;;;16.10;99.90;;;;;;5015685;28;92981;-78
2022/10/24 04:46:07;;;;;;;6.47;2.28;;;16.10;99.90;;;;;;5013495;28;94742;-78
2022/10/24 04:48:34;;;;;;;6.93;2.33;;;16.10;99.90;;;;;;5015977;28;92335;-78
2022/10/24 04:51:01;;;;;;;3.38;2.10;;;16.00;99.90;;;;;;5015831;28;92926;-78
2022/10/24 04:53:28;;;;;;;4.32;2.20;;;16.00;99.90;;;;;;5014040;28;106459;-78
2022/10/24 04:55:55;;;;;;;7.55;2.15;;;15.90;99.90;;;;;;5031300;28;92548;-78
2022/10/24 04:58:22;;;;;;;2.25;1.70;;;15.90;99.90;;;;;;5014507;28;92479;-78
2022/10/24 05:00:49;;;;;;;3.42;1.80;;;15.90;99.90;;;;;;5030940;28;96156;-78
2022/10/24 05:03:17;;;;;;;3.65;1.95;;;15.90;99.90;;;;;;5015830;28;91868;-78
2022/10/24 05:05:44;;;;;;;4.18;2.15;;;15.90;99.90;;;;;;5014367;28;92504;-78
2022/10/24 05:08:11;;;;;;;6.10;2.10;;;15.90;99.90;;;;;;5031585;27;92507;-78
2022/10/24 05:10:38;;;;;;;2.75;1.80;;;15.90;99.90;;;;;;5017568;28;95872;-78
2022/10/24 05:13:05;;;;;;;6.90;1.98;;;15.90;99.90;;;;;;5017899;28;95389;-78
2022/10/24 05:15:32;;;;;;;3.92;1.85;;;15.90;99.90;;;;;;5034697;28;92532;-78
2022/10/24 05:17:59;;;;;;;4.10;2.08;;;15.90;99.90;;;;;;5034411;28;92486;-78
2022/10/24 05:20:26;;;;;;;3.58;1.85;;;15.90;99.90;;;;;;5017622;28;94382;-78
2022/10/24 05:22:53;;;;;;;5.38;1.75;;;15.80;99.90;;;;;;5017236;28;105822;-78
2022/10/24 05:25:20;;;;;;;7.32;2.80;;;15.80;99.90;;;;;;5000960;28;92486;-78
2022/10/24 05:27:47;;;;;;;3.97;2.20;;;15.80;99.90;;;;;;5017746;28;91735;-78
2022/10/24 05:30:14;;;;;;;4.82;2.45;;;15.80;99.90;;;;;;5017237;28;96355;-78
2022/10/24 05:32:41;;;;;;;4.30;1.83;;;15.80;99.90;;;;;;5017358;28;95754;-78
2022/10/24 05:35:09;;;;;;;7.18;1.88;;;15.70;99.90;;;;;;5032551;28;94818;-78
2022/10/24 05:37:37;;;;;;;5.43;1.83;;;15.70;99.90;;;;;;5018840;28;92942;-78
2022/10/24 05:40:09;;;;;;;5.88;1.70;;;15.70;99.90;;;;;;5017027;28;95560;-78
2022/10/24 05:42:37;;;;;;;7.30;1.85;;;15.80;99.90;;;;;;5018583;28;93017;-78
2022/10/24 05:45:09;;;;;;;5.47;1.90;;;15.70;99.90;;;;;;5017428;28;92531;-78
2022/10/24 05:47:36;;;;;;;2.53;1.63;;;15.80;99.90;;;;;;5017666;28;92375;-78
2022/10/24 05:50:04;;;;;;;6.97;1.80;;;15.70;99.90;;;;;;5018693;28;93191;-78
2022/10/24 05:52:31;;;;;;;6.60;1.70;;;15.70;99.90;;;;;;5018980;28;92982;-78
2022/10/24 05:54:58;;;;;;;5.35;2.72;;;15.70;99.90;;;;;;5016876;28;100101;-78
2022/10/24 05:57:34;;;;;;;4.63;1.75;;;15.70;99.90;;;;;;5018748;28;92322;-78
2022/10/24 06:00:03;;;;;;;6.78;1.83;;;15.60;99.90;;;;;;5016638;28;95558;-78
2022/10/24 06:02:38;;;;;;;5.00;2.15;;;15.60;99.90;;;;;;5015785;28;94966;-78
2022/10/24 06:05:06;;;;;;;4.47;1.83;;;15.60;99.90;;;;;;5016885;28;92599;-78
2022/10/24 06:07:34;;;;;;;5.20;1.67;;;15.60;99.90;;;;;;5000123;28;92560;-78
2022/10/24 06:10:03;;;;;;;3.97;1.58;;;15.60;99.90;;;;;;5033429;28;95976;-78
2022/10/24 06:12:29;;;;;;;3.75;1.67;;;15.70;99.90;;;;;;5018052;28;92827;-78
2022/10/24 06:14:58;;;;;;;5.25;1.92;;;15.60;99.90;;;;;;5033447;28;93300;-78
2022/10/24 06:17:25;;;;;;;3.13;1.63;;;15.70;99.90;;;;;;5018529;28;91691;-78
2022/10/24 06:19:52;;;;;;;4.38;1.80;;;15.80;99.90;;;;;;5016158;28;94169;-78
2022/10/24 06:22:22;;;;;;;3.92;1.80;;;15.90;99.90;;;;;;4999732;28;94254;-78
2022/10/24 06:24:50;;;;;;;6.60;2.05;;;15.90;99.90;;;;;;5015714;28;94883;-78
2022/10/24 06:27:17;;;;;;;6.22;1.55;;;15.90;99.90;;;;;;5032681;28;92455;-78
2022/10/24 06:29:44;;;;;;;5.75;1.98;;;16.10;99.90;;;;;;5033051;28;95994;-79
2022/10/24 06:32:11;;;;;;;8.30;2.00;;;16.10;99.90;;;;;;5017828;28;93021;-78
2022/10/24 06:34:38;;;;;;;7.15;1.55;;;16.10;99.90;;;;;;5016538;28;92406;-79
2022/10/24 06:37:05;;;;;;;5.60;1.90;;;16.10;99.90;;;;;;5016610;28;92508;-78
2022/10/24 06:39:32;;;;;;;4.85;2.10;;;16.20;99.90;;;;;;5017715;28;92485;-78
2022/10/24 06:42:00;;;;;;;4.68;2.00;;;16.20;99.90;;;;;;5017658;28;92982;-78
2022/10/24 06:44:27;;;;;;;3.15;1.90;;;16.20;99.90;;;;;;5016457;28;92538;-79
2022/10/24 06:46:54;;;;;;;6.32;1.80;;;16.30;99.90;;;;;;5017800;28;92463;-78
2022/10/24 06:49:21;;;;;;;2.53;1.70;;;16.30;99.90;;;;;;5015989;28;95702;-79
2022/10/24 06:51:48;;;;;;;2.70;1.58;;;16.40;99.90;;;;;;5016010;28;95423;-78
2022/10/24 06:54:15;;;;;;;5.00;2.90;;;16.40;99.90;;;;;;5017701;28;92464;-78
2022/10/24 06:56:42;;;;;;;5.22;2.05;;;16.50;99.90;;;;;;5032869;28;92474;-79
2022/10/24 06:59:12;;;;;;;4.80;2.00;;;16.50;99.90;;;;;;5032594;28;95884;-79
2022/10/24 07:01:39;;;;;;;5.05;1.95;;;16.60;99.90;;;;;;5015764;28;96025;-78
2022/10/24 07:04:06;;;;;;;8.68;1.50;;;16.60;99.90;;;;;;5017594;28;92429;-79
2022/10/24 07:06:34;;;;;;;6.28;1.80;;;16.60;99.90;;;;;;5016859;28;91969;-79
2022/10/24 07:09:03;;;;;;;4.30;1.70;;;16.70;99.90;;;;;;5015856;28;95404;-79
2022/10/24 07:11:31;;;;;;;4.63;2.22;;;16.70;99.90;;;;;;5015410;28;95471;-79
2022/10/24 07:13:58;;;;;;;5.05;1.83;;;16.80;99.90;;;;;;5015642;28;94775;-77
2022/10/24 07:16:26;;;;;;;4.53;2.03;;;16.80;99.90;;;;;;5016525;28;92438;-77
2022/10/24 07:18:53;;;;;;;3.25;2.40;;;16.80;99.90;;;;;;5016107;28;93265;-77
2022/10/24 07:21:23;;;;;;;5.93;3.08;;;16.90;99.90;;;;;;5031436;28;95710;-77
2022/10/24 07:23:51;;;;;;;4.25;2.03;;;17.00;99.90;;;;;;5015186;28;92409;-77
2022/10/24 07:26:19;;;;;;;3.85;2.08;;;17.10;99.90;;;;;;5031772;28;92542;-77
2022/10/24 07:28:52;;;;;;;6.78;2.33;;;17.20;99.90;;;;;;4996029;28;93891;-77
2022/10/24 07:31:25;;;;;;;3.83;1.80;;;17.40;99.90;;;;;;4995525;28;92979;-77
2022/10/24 07:33:52;;;;;;;2.88;1.48;;;17.60;99.90;;;;;;5011425;28;92442;-77
2022/10/24 07:36:22;;;;;;;4.88;1.95;;;17.70;99.90;;;;;;4996346;28;92459;-77
2022/10/24 07:38:51;;;;;;;6.05;1.90;;;17.70;99.90;;;;;;4993473;28;98284;-77
2022/10/24 07:41:18;;;;;;;6.60;2.05;;;17.80;99.90;;;;;;5011413;28;95266;-77
2022/10/24 07:43:45;;;;;;;6.20;2.50;;;17.80;99.90;;;;;;4996037;28;92427;-77
2022/10/24 07:46:15;;;;;;;4.85;2.60;;;17.80;99.90;;;;;;4978483;28;92697;-77
2022/10/24 07:48:42;;;;;;;5.70;3.10;;;17.90;99.90;;;;;;5010874;28;93191;-77
2022/10/24 07:51:13;;;;;;;5.72;1.90;;;18.00;99.90;;;;;;4996011;28;93003;-77
2022/10/24 07:53:40;;;;;;;6.20;1.85;;;18.20;99.90;;;;;;4996137;28;92338;-77
2022/10/24 07:56:13;;;;;;;6.32;1.88;;;18.20;99.90;;;;;;4995059;28;91712;-77
2022/10/24 07:58:41;;;;;;;4.05;1.38;;;18.10;99.90;;;;;;4995935;28;93138;-77
2022/10/24 08:01:11;;;;;;;4.72;1.90;;;18.00;99.90;;;;;;4995818;28;92862;-77
2022/10/24 08:03:38;;;;;;;3.20;1.60;;;18.00;99.90;;;;;;5010076;28;94784;-77
2022/10/24 08:06:08;;;;;;;3.78;1.48;;;17.80;99.90;;;;;;5011296;28;92459;-77
2022/10/24 08:08:35;;;;;;;5.57;2.05;;;17.80;99.90;;;;;;4994163;28;95829;-77
2022/10/24 08:11:13;;;;;;;2.85;1.77;;;17.70;99.90;;;;;;5010864;28;95669;-77
2022/10/24 08:13:40;;;;;;;3.67;1.40;;;17.80;99.90;;;;;;4995678;28;92402;-77
2022/10/24 08:16:09;;;;;;;4.90;1.80;;;17.80;99.90;;;;;;4994657;28;93226;-77
2022/10/24 08:18:37;;;;;;;3.30;1.60;;;17.80;99.90;;;;;;4995274;28;93307;-77
2022/10/24 08:21:07;;;;;;;2.95;1.50;;;17.80;99.90;;;;;;4994500;28;95409;-77
2022/10/24 08:23:35;;;;;;;6.10;1.90;;;17.90;99.90;;;;;;4995412;28;92451;-77
2022/10/24 08:26:06;;;;;;;6.68;1.73;;;18.00;99.90;;;;;;4994213;28;92494;-77
2022/10/24 08:28:34;;;;;;;3.22;1.80;;;18.10;99.90;;;;;;4993902;28;95861;-77
2022/10/24 08:31:06;;;;;;;5.40;2.35;;;18.00;99.90;;;;;;4994927;28;103160;-77
2022/10/24 08:33:34;;;;;;;5.60;1.67;;;18.10;99.90;;;;;;4995605;28;92538;-77
2022/10/24 08:36:04;;;;;;;5.13;1.52;;;18.00;99.90;;;;;;4994171;28;93130;-77
2022/10/24 08:38:31;;;;;;;3.58;1.58;;;18.10;99.90;;;;;;5010646;28;93232;-77
2022/10/24 08:40:59;;;;;;;4.28;1.85;;;18.10;99.90;;;;;;5010696;28;92996;-77
2022/10/24 08:43:26;;;;;;;6.38;1.80;;;18.10;99.90;;;;;;4998296;28;92438;-77
2022/10/24 08:46:05;;;;;;;3.38;1.58;;;18.30;99.90;;;;;;5014667;28;91694;-77
2022/10/24 08:48:41;;;;;;;5.45;1.50;;;18.40;99.90;;;;;;4998723;28;93290;-77
2022/10/24 08:51:33;;;;;;;6.20;2.53;;;18.50;99.90;;;;;;4998565;28;93048;-77
2022/10/24 08:54:01;;;;;;;6.82;1.50;;;18.60;99.90;;;;;;4997520;28;94858;-77
2022/10/24 08:56:32;;;;;;;5.40;1.65;;;18.60;99.90;;;;;;4981069;28;92552;-77
2022/10/24 08:59:01;;;;;;;5.75;1.63;;;18.70;99.90;;;;;;4997397;28;95657;-77
2022/10/24 09:01:47;;;;;;;6.60;1.60;;;18.80;99.90;;;;;;4997121;28;92951;-77
2022/10/24 09:04:18;;;;;;;5.95;1.40;;;18.90;99.90;;;;;;4998956;28;92421;-77
2022/10/24 09:06:47;;;;;;;6.78;2.45;;;19.10;99.90;;;;;;4997235;28;92469;-77
2022/10/24 09:09:17;;;;;;;6.25;1.88;;;19.00;99.90;;;;;;5013826;28;93293;-77
2022/10/24 09:11:44;;;;;;;8.00;2.45;;;19.10;99.90;;;;;;4998716;28;93236;-77
2022/10/24 09:14:14;;;;;;;6.25;1.85;;;19.30;99.90;;;;;;4998740;28;92513;-77
2022/10/24 09:16:43;;;;;;;7.45;1.80;;;19.40;99.90;;;;;;4996832;28;92520;-77
2022/10/24 09:19:15;;;;;;;5.38;2.03;;;19.40;99.90;;;;;;4997086;28;95576;-77
2022/10/24 09:21:43;;;;;;;5.18;2.20;;;19.50;99.90;;;;;;4998169;28;95322;-77
2022/10/24 09:24:19;;;;;;;4.20;1.75;;;19.50;99.90;;;;;;4998317;28;97111;-77
2022/10/24 09:26:47;;;;;;;3.70;1.50;;;19.60;99.90;;;;;;4980075;28;93178;-77
2022/10/24 09:29:14;;;;;;;6.47;1.63;;;19.50;99.90;;;;;;4996916;28;94290;-77
2022/10/24 09:31:41;;;;;;;8.85;2.50;;;19.50;99.90;;;;;;4997936;28;93054;-77
2022/10/24 09:34:10;;;;;;;5.57;1.55;;;19.50;99.90;;;;;;5013742;28;92538;-77
2022/10/24 09:36:39;;;;;;;5.60;1.60;;;19.60;99.90;;;;;;4998473;28;91782;-77
2022/10/24 09:39:28;;;;;;;6.88;1.60;;;19.60;99.90;;;;;;4980179;28;95929;-77
2022/10/24 09:41:58;;;;;;;5.95;1.48;;;19.60;99.90;;;;;;4996576;28;95470;-77
2022/10/24 09:44:39;;;;;;;5.90;1.88;;;19.50;99.90;;;;;;4996914;28;94811;-77
2022/10/24 09:47:22;;;;;;;6.05;1.60;;;19.50;99.90;;;;;;4998198;28;92351;-77
2022/10/24 09:49:49;;;;;;;6.70;2.13;;;19.50;99.90;;;;;;4996219;28;95738;-77
2022/10/24 09:52:23;;;;;;;5.57;1.95;;;19.30;99.90;;;;;;4997861;28;92389;-77
2022/10/24 09:55:15;;;;;;;6.60;1.88;;;19.40;99.90;;;;;;4997199;28;92460;-77
2022/10/24 09:57:43;;;;;;;6.90;1.58;;;19.50;99.90;;;;;;4996321;28;92543;-77
2022/10/24 10:00:33;;;;;;;3.17;1.33;;;19.50;99.90;;;;;;5012746;28;95866;-77
2022/10/24 10:03:17;;;;;;;5.78;2.20;;;19.60;99.90;;;;;;4997905;28;91992;-77
2022/10/24 10:05:53;;;;;;;6.72;1.73;;;19.60;99.90;;;;;;5013188;28;93130;-77
2022/10/24 10:08:27;;;;;;;4.07;1.33;;;19.60;99.90;;;;;;4997701;28;92561;-77
2022/10/24 10:11:01;;;;;;;5.47;1.38;;;19.60;99.90;;;;;;4994918;28;95717;-77
2022/10/24 10:13:29;;;;;;;4.95;1.52;;;19.60;99.90;;;;;;4997576;28;95305;-77
2022/10/24 10:16:04;;;;;;;3.28;1.50;;;19.60;99.90;;;;;;4979712;28;92627;-77
2022/10/24 10:18:45;;;;;;;6.15;1.75;;;19.70;99.90;;;;;;4996077;28;92503;-77
2022/10/24 10:21:18;;;;;;;3.25;1.38;;;19.70;99.90;;;;;;5012808;28;93234;-77
2022/10/24 10:23:51;;;;;;;4.55;1.52;;;19.80;99.90;;;;;;4997316;28;92919;-77
2022/10/24 10:26:40;;;;;;;5.43;1.80;;;19.80;99.90;;;;;;4996054;28;93075;-77
2022/10/24 10:29:25;;;;;;;3.92;1.30;;;19.90;99.90;;;;;;4997538;28;91698;-77
2022/10/24 10:32:21;;;;;;;4.78;1.40;;;19.80;99.90;;;;;;5012328;28;95770;-77
2022/10/24 10:34:58;;;;;;;4.45;2.65;;;19.70;99.90;;;;;;4997112;28;93307;-77
2022/10/24 10:37:39;;;;;;;4.68;1.15;;;19.50;99.90;;;;;;4996384;28;94883;-77
2022/10/24 10:40:24;;;;;;;4.10;1.20;;;19.50;99.90;;;;;;4997305;28;92330;-77
2022/10/24 10:43:15;;;;;;;3.97;1.73;;;19.60;99.90;;;;;;4995891;28;93234;-77
2022/10/24 10:46:13;;;;;;;4.10;1.40;;;19.70;99.90;;;;;;4995219;28;103169;-77
2022/10/24 10:49:09;;;;;;;4.97;1.65;;;19.80;99.90;;;;;;4997603;28;92518;-77
2022/10/24 10:51:55;;;;;;;3.50;1.20;;;19.80;99.90;;;;;;4995770;28;92454;-77
2022/10/24 10:54:52;;;;;;;5.68;1.60;;;19.70;99.90;;;;;;4995689;28;93307;-77
2022/10/24 10:57:41;;;;;;;6.75;1.45;;;19.80;99.90;;;;;;4997188;28;92843;-77
2022/10/24 11:00:22;;;;;;;3.92;1.00;;;19.80;99.90;;;;;;4978734;28;92568;-77
2022/10/24 11:02:56;;;;;;;2.05;1.10;;;19.80;99.90;;;;;;5011933;28;92449;-77
2022/10/24 11:05:36;;;;;;;;;;;19.80;99.90;;;;;;4994298;28;99580;-77
2022/10/24 11:08:41;;;;;;;2.33;1.55;;;19.70;99.90;;;;;;4996592;28;93823;-77
2022/10/24 11:11:16;;;;;;;2.53;1.08;;;20.00;99.90;;;;;;4975811;28;92919;-77
2022/10/24 11:13:50;;;;;;;3.10;1.45;;;20.00;99.90;;;;;;4995428;28;92581;-77
2022/10/24 11:16:23;;;;;;;2.58;1.10;;;20.00;99.90;;;;;;4995082;28;95890;-77
2022/10/24 11:18:53;;;;;;;3.17;1.30;;;20.10;99.90;;;;;;4996402;28;93041;-77
2022/10/24 11:21:23;;;;;;;4.18;1.20;;;20.20;99.90;;;;;;5012115;28;92491;-77
2022/10/24 11:24:16;;;;;;;3.58;1.33;;;20.30;99.90;;;;;;4995799;28;91758;-77
2022/10/24 11:27:06;;;;;;;5.50;1.20;;;20.50;99.90;;;;;;4995926;28;93326;-77
2022/10/24 11:29:56;;;;;;;2.83;1.00;;;20.60;99.90;;;;;;4996265;28;93299;-77
2022/10/24 11:32:37;;;;;;;6.70;1.98;;;20.60;99.90;;;;;;4977247;28;94865;-77
2022/10/24 11:35:31;;;;;;;6.03;1.35;;;20.60;99.90;;;;;;4994853;28;92534;-77
2022/10/24 11:38:16;;;;;;;3.92;1.60;;;20.60;99.90;;;;;;4990676;28;93270;-77
2022/10/24 11:40:47;;;;;;;3.35;2.10;;;20.60;99.90;;;;;;4994685;28;95754;-77
2022/10/24 11:43:26;;;;;;;6.30;1.63;;;20.60;99.90;;;;;;4996365;28;92465;-77
2022/10/24 11:46:22;;;;;;;3.33;1.10;;;20.70;99.90;;;;;;4996092;28;92464;-77
2022/10/24 11:48:54;;;;;;;5.35;1.30;;;20.80;99.90;;;;;;4994700;28;93190;-77
2022/10/24 11:51:39;;;;;;;3.07;1.20;;;20.70;99.90;;;;;;4996293;28;93059;-77
2022/10/24 11:54:24;;;;;;;5.18;1.10;;;20.80;99.90;;;;;;4996251;28;92540;-77
2022/10/24 11:56:57;;;;;;;3.83;1.23;;;20.80;99.90;;;;;;4994668;28;92528;-77
2022/10/24 11:59:24;;;;;;;3.45;1.83;;;20.80;99.90;;;;;;4994868;28;95676;-77
2022/10/24 12:01:54;;;;;;;5.47;1.67;;;20.70;99.90;;;;;;4994480;28;95185;-77
2022/10/24 12:04:47;;;;;;;2.72;1.00;;;20.80;99.90;;;;;;4996151;28;92526;-77
2022/10/24 12:07:33;;;;;;;5.28;1.20;;;20.90;99.40;;;;;;4994748;28;92385;-77
2022/10/24 12:10:27;;;;;;;5.07;1.55;;;21.00;99.60;;;;;;4994038;28;95755;-77
2022/10/24 12:13:06;;;;;;;3.30;1.27;;;21.10;99.50;;;;;;4994259;28;95575;-77
2022/10/24 12:15:54;;;;;;;4.53;1.10;;;21.20;99.40;;;;;;4995073;28;92901;-77
2022/10/24 12:18:32;;;;;;;3.50;1.20;;;21.40;99.20;;;;;;4995411;28;91712;-77
2022/10/24 12:21:09;;;;;;;2.80;0.80;;;21.40;99.20;;;;;;5010922;28;93414;-77
2022/10/24 12:23:40;;;;;;;2.85;1.17;;;21.30;98.70;;;;;;4993996;28;94268;-77
2022/10/24 12:26:17;;;;;;;6.18;2.85;;;21.30;98.60;;;;;;4992885;28;94920;-77
2022/10/24 12:28:59;;;;;;;5.00;1.30;;;21.10;98.20;;;;;;4995554;28;92423;-77
2022/10/24 12:31:30;;;;;;;3.15;1.20;;;20.80;98.00;;;;;;4995614;28;94880;-77
2022/10/24 12:34:17;;;;;;;4.83;0.80;;;20.60;98.10;;;;;;5010902;28;95544;-77
2022/10/24 12:37:11;;;;;;;2.97;0.90;;;20.50;98.40;;;;;;4995710;28;93008;-77
2022/10/24 12:39:43;;;;;;;2.97;1.17;;;20.40;98.60;;;;;;4994219;28;92493;-77
2022/10/24 12:42:18;;;;;;;3.35;1.50;;;20.10;98.90;;;;;;4994003;28;93188;-77
2022/10/24 12:44:49;;;;;;;3.05;1.60;;;20.20;99.20;;;;;;4994442;28;93072;-77
2022/10/24 12:47:25;;;;;;;2.03;0.90;;;20.20;99.00;;;;;;4995417;28;92459;-77
2022/10/24 12:49:52;;;;;;;4.75;1.75;;;20.30;99.00;;;;;;4993992;28;92539;-77
2022/10/24 12:52:31;;;;;;;2.65;1.02;;;20.30;99.20;;;;;;5008482;28;110375;-77
2022/10/24 12:54:59;;;;;;;4.60;1.00;;;20.40;98.60;;;;;;4993450;28;96524;-77
2022/10/24 12:57:34;;;;;;;2.30;1.00;;;20.30;98.40;;;;;;4995398;28;92986;-77
2022/10/24 13:00:03;;;;;;;4.53;1.50;;;20.40;98.60;;;;;;4994082;28;93024;-77
2022/10/24 13:02:30;;;;;;;3.00;0.90;;;20.40;98.50;;;;;;4995001;28;93273;-77
2022/10/24 13:05:34;;;;;;;2.38;1.27;;;20.40;98.50;;;;;;4995257;28;93079;-77
2022/10/24 13:08:34;;;;;;;3.17;1.75;;;20.30;98.10;;;;;;5010544;28;92411;-77
2022/10/24 13:11:21;;;;;;;4.63;0.82;;;20.10;98.40;;;;;;4977143;28;91750;-77
2022/10/24 13:13:51;;;;;;;4.80;1.33;;;19.90;98.70;;;;;;4994986;28;93194;-77